Time;durP1;ratioP1;P1;durP2;ratioP2;P2;SDS_P1;SDS_P2;PMS_P1;PMS_P2;Temp;Humidity;BMP_temperature;BMP_pressure;BME280_temperature;BME280_humidity;BME280_pressure;Samples;Min_cycle;Max_cycle;Signal;HPM_P1;HPM_P2
2024/01/28 00:00:22;;;;;;;0.10;0.10;;;6.90;99.90;;;;;;5022228;28;20033;-81
2024/01/28 00:02:48;;;;;;;0.10;0.10;;;6.90;99.90;;;;;;5013900;28;20079;-83
2024/01/28 00:05:14;;;;;;;0.10;0.10;;;6.90;99.90;;;;;;5018953;28;20036;-82
2024/01/28 00:07:40;;;;;;;0.10;0.10;;;6.90;99.90;;;;;;5020087;28;20040;-82
2024/01/28 00:10:07;;;;;;;0.10;0.10;;;6.80;99.90;;;;;;5014010;28;20462;-82
2024/01/28 00:12:32;;;;;;;0.10;0.10;;;6.60;99.90;;;;;;5007594;28;20045;-80
2024/01/28 00:14:59;;;;;;;0.10;0.10;;;6.60;99.90;;;;;;5014850;28;20103;-84
2024/01/28 00:17:24;;;;;;;0.77;0.77;;;6.50;99.90;;;;;;5015402;28;20646;-81
2024/01/28 00:19:50;;;;;;;0.20;0.20;;;6.60;99.90;;;;;;5019557;28;20038;-80
2024/01/28 00:22:16;;;;;;;0.10;0.10;;;6.60;99.90;;;;;;5014035;28;20072;-81
2024/01/28 00:24:41;;;;;;;0.10;0.10;;;6.60;99.90;;;;;;5012006;28;20030;-80
2024/01/28 00:27:07;;;;;;;0.10;0.10;;;6.50;99.90;;;;;;5019782;28;20029;-83
2024/01/28 00:29:32;;;;;;;0.10;0.10;;;6.50;99.90;;;;;;5013620;28;20799;-81
2024/01/28 00:32:01;;;;;;;0.32;0.32;;;6.60;99.90;;;;;;5016389;28;20679;-82
2024/01/28 00:34:27;;;;;;;0.10;0.10;;;6.40;99.90;;;;;;4995066;28;20034;-80
2024/01/28 00:36:56;;;;;;;0.10;0.10;;;6.40;99.90;;;;;;5014165;28;20032;-84
2024/01/28 00:39:21;;;;;;;0.10;0.10;;;6.40;99.90;;;;;;5005757;28;20176;-81
2024/01/28 00:41:47;;;;;;;0.10;0.10;;;6.40;99.90;;;;;;5021467;28;20144;-80
2024/01/28 00:44:13;;;;;;;0.25;0.25;;;6.40;99.90;;;;;;5022178;28;20637;-81
2024/01/28 00:46:38;;;;;;;0.10;0.10;;;6.40;99.90;;;;;;5015603;28;20026;-81
2024/01/28 00:49:04;;;;;;;0.10;0.10;;;6.40;99.90;;;;;;5021067;28;20057;-80
2024/01/28 00:51:31;;;;;;;0.10;0.10;;;6.40;99.90;;;;;;5019448;28;20048;-80
2024/01/28 00:53:57;;;;;;;;;;;6.40;99.90;;;;;;5015025;28;20037;-82
2024/01/28 00:56:23;;;;;;;0.10;0.10;;;6.30;99.90;;;;;;5016366;28;19920;-80
2024/01/28 00:58:49;;;;;;;0.10;0.10;;;6.20;99.90;;;;;;5014935;28;20033;-81
2024/01/28 01:01:14;;;;;;;0.10;0.10;;;6.30;99.90;;;;;;5021115;28;20032;-79
2024/01/28 01:03:40;;;;;;;0.10;0.10;;;6.20;99.90;;;;;;5021517;28;20041;-82
2024/01/28 01:06:07;;;;;;;0.10;0.10;;;6.20;99.90;;;;;;5017074;28;20420;-81
2024/01/28 01:08:33;;;;;;;0.10;0.10;;;6.20;99.90;;;;;;5009242;28;20091;-83
2024/01/28 01:11:03;;;;;;;0.20;0.20;;;6.20;99.90;;;;;;5003278;28;20041;-84
2024/01/28 01:13:30;;;;;;;0.75;0.75;;;6.20;99.90;;;;;;5016771;28;20025;-85
2024/01/28 01:15:55;;;;;;;;;;;6.10;99.90;;;;;;5016783;28;20029;-82
2024/01/28 01:18:23;;;;;;;0.10;0.10;;;6.10;99.90;;;;;;5015231;28;20360;-82
2024/01/28 01:20:49;;;;;;;0.10;0.10;;;6.00;99.90;;;;;;5021549;28;20050;-83
2024/01/28 01:23:15;;;;;;;0.10;0.10;;;5.90;99.90;;;;;;5014723;28;20041;-82
2024/01/28 01:25:41;;;;;;;0.45;0.45;;;5.90;99.90;;;;;;5020666;28;20030;-83
2024/01/28 01:28:06;;;;;;;0.10;0.10;;;5.90;99.90;;;;;;5020152;28;20082;-84
2024/01/28 01:30:32;;;;;;;3.35;3.13;;;5.90;99.90;;;;;;4994356;28;20180;-83
2024/01/28 01:32:58;;;;;;;0.10;0.10;;;5.80;99.90;;;;;;5021394;28;20030;-83
2024/01/28 01:35:23;;;;;;;0.10;0.10;;;5.80;99.90;;;;;;5021763;28;20222;-84
2024/01/28 01:37:49;;;;;;;0.10;0.10;;;6.00;99.90;;;;;;5020847;28;20025;-82
2024/01/28 01:40:15;;;;;;;0.10;0.10;;;5.90;99.90;;;;;;5011382;28;20044;-82
2024/01/28 01:42:43;;;;;;;0.10;0.10;;;6.00;99.90;;;;;;5018892;28;20053;-82
2024/01/28 01:45:09;;;;;;;0.10;0.10;;;6.00;99.90;;;;;;5019375;28;20029;-82
2024/01/28 01:47:35;;;;;;;0.10;0.10;;;5.90;99.90;;;;;;5018202;28;20029;-83
2024/01/28 01:50:02;;;;;;;0.10;0.10;;;5.80;99.90;;;;;;5017144;28;20057;-84
2024/01/28 01:52:28;;;;;;;;;;;5.80;99.90;;;;;;5015356;28;20021;-81
2024/01/28 01:54:54;;;;;;;0.10;0.10;;;5.80;99.90;;;;;;5024776;28;19916;-80
2024/01/28 01:57:20;;;;;;;0.10;0.10;;;5.80;99.90;;;;;;5020122;28;20117;-82
2024/01/28 01:59:48;;;;;;;0.20;0.20;;;5.80;99.90;;;;;;5025083;28;20033;-82
2024/01/28 02:02:15;;;;;;;0.10;0.10;;;5.80;99.90;;;;;;5025555;28;20033;-82
2024/01/28 02:04:40;;;;;;;0.10;0.10;;;5.80;99.90;;;;;;5021023;28;20109;-83
2024/01/28 02:07:06;;;;;;;0.10;0.10;;;5.80;99.90;;;;;;5018878;28;20087;-83
2024/01/28 02:09:34;;;;;;;0.68;0.68;;;5.80;99.90;;;;;;5020962;28;20212;-82
2024/01/28 02:12:00;;;;;;;0.35;0.35;;;5.80;99.90;;;;;;5014777;28;20408;-83
2024/01/28 02:14:31;;;;;;;0.20;0.20;;;5.80;99.90;;;;;;5019180;28;20033;-83
2024/01/28 02:16:59;;;;;;;2.55;1.90;;;5.70;99.90;;;;;;5025085;28;20032;-84
2024/01/28 02:19:26;;;;;;;0.10;0.10;;;5.80;99.90;;;;;;5006254;28;20115;-82
2024/01/28 02:21:51;;;;;;;;;;;5.80;99.90;;;;;;5021068;28;20042;-81
2024/01/28 02:24:17;;;;;;;0.10;0.10;;;5.80;99.90;;;;;;5015274;28;19909;-82
2024/01/28 02:26:43;;;;;;;0.50;0.50;;;5.80;99.90;;;;;;5023252;28;20092;-81
2024/01/28 02:29:08;;;;;;;0.10;0.10;;;5.80;99.90;;;;;;5018217;28;20029;-82
2024/01/28 02:31:34;;;;;;;3.90;1.77;;;5.80;99.90;;;;;;5021102;28;20100;-81
2024/01/28 02:34:00;;;;;;;0.95;0.95;;;5.70;99.90;;;;;;5024272;28;20035;-81
2024/01/28 02:36:28;;;;;;;0.20;0.20;;;5.80;99.90;;;;;;5006238;28;20044;-81
2024/01/28 02:38:58;;;;;;;0.10;0.10;;;5.80;99.90;;;;;;5021137;28;20033;-82
2024/01/28 02:41:24;;;;;;;0.10;0.10;;;5.70;99.90;;;;;;5003155;28;20136;-81
2024/01/28 02:43:50;;;;;;;0.10;0.10;;;5.60;99.90;;;;;;5023877;28;20032;-81
2024/01/28 02:46:16;;;;;;;0.10;0.10;;;5.60;99.90;;;;;;5004727;28;20079;-80
2024/01/28 02:48:41;;;;;;;0.22;0.22;;;5.60;99.90;;;;;;5023032;28;20025;-80
2024/01/28 02:51:07;;;;;;;0.10;0.10;;;5.70;99.90;;;;;;4998351;28;20041;-81
2024/01/28 02:53:33;;;;;;;0.10;0.10;;;5.60;99.90;;;;;;5023731;28;20112;-81
2024/01/28 02:56:00;;;;;;;0.20;0.20;;;5.60;99.90;;;;;;5023154;28;20818;-80
2024/01/28 02:58:26;;;;;;;0.10;0.10;;;5.60;99.90;;;;;;5021628;28;20025;-79
2024/01/28 03:00:52;;;;;;;0.10;0.10;;;5.40;99.90;;;;;;5017783;28;20041;-80
2024/01/28 03:03:18;;;;;;;0.10;0.10;;;5.50;99.90;;;;;;5023037;28;20076;-80
2024/01/28 03:05:44;;;;;;;0.10;0.10;;;5.60;99.90;;;;;;5018010;28;20061;-80
2024/01/28 03:08:10;;;;;;;0.10;0.10;;;5.50;99.90;;;;;;5014997;28;20989;-80
2024/01/28 03:10:36;;;;;;;0.10;0.10;;;5.60;99.90;;;;;;5016860;28;20087;-80
2024/01/28 03:13:02;;;;;;;0.10;0.10;;;5.50;99.90;;;;;;5017113;28;20021;-81
2024/01/28 03:15:28;;;;;;;0.88;0.88;;;5.60;99.90;;;;;;5021753;28;20103;-81
2024/01/28 03:17:53;;;;;;;0.10;0.10;;;5.50;99.90;;;;;;5018696;28;20045;-81
2024/01/28 03:20:19;;;;;;;0.10;0.10;;;5.50;99.90;;;;;;5016971;28;20053;-81
2024/01/28 03:22:45;;;;;;;0.10;0.10;;;5.50;99.90;;;;;;5017465;28;20041;-79
2024/01/28 03:25:12;;;;;;;0.40;0.40;;;5.40;99.90;;;;;;5023341;28;20111;-80
2024/01/28 03:27:38;;;;;;;0.10;0.10;;;5.40;99.90;;;;;;5016851;28;20029;-80
2024/01/28 03:30:05;;;;;;;0.10;0.10;;;5.40;99.90;;;;;;5021461;28;20152;-78
2024/01/28 03:32:31;;;;;;;0.10;0.10;;;5.40;99.90;;;;;;5018248;28;20021;-80
2024/01/28 03:34:57;;;;;;;0.10;0.10;;;5.30;99.90;;;;;;4996331;28;20159;-80
2024/01/28 03:37:23;;;;;;;0.10;0.10;;;5.30;99.90;;;;;;5005016;28;20568;-80
2024/01/28 03:39:49;;;;;;;0.10;0.10;;;5.20;99.90;;;;;;5021448;28;20607;-81
2024/01/28 03:42:15;;;;;;;0.10;0.10;;;5.20;99.90;;;;;;5018175;28;20105;-80
2024/01/28 03:44:40;;;;;;;0.10;0.10;;;5.10;99.90;;;;;;5021348;28;20033;-81
2024/01/28 03:47:06;;;;;;;0.10;0.10;;;5.00;99.90;;;;;;5003782;28;20029;-82
2024/01/28 03:49:32;;;;;;;0.10;0.10;;;5.10;99.90;;;;;;5016536;28;20042;-81
2024/01/28 03:51:57;;;;;;;1.17;1.08;;;5.20;99.90;;;;;;5022332;28;20108;-79
2024/01/28 03:54:23;;;;;;;0.52;0.52;;;5.20;99.90;;;;;;5019724;28;20513;-80
2024/01/28 03:56:49;;;;;;;0.10;0.10;;;5.10;99.90;;;;;;5020821;28;20108;-81
2024/01/28 03:59:15;;;;;;;0.10;0.10;;;5.10;99.90;;;;;;5021268;28;20037;-78
2024/01/28 04:01:40;;;;;;;2.10;0.63;;;5.10;99.90;;;;;;5016866;28;20091;-81
2024/01/28 04:04:06;;;;;;;0.10;0.10;;;5.00;99.90;;;;;;5019092;28;20033;-80
2024/01/28 04:06:32;;;;;;;0.10;0.10;;;5.00;99.90;;;;;;5018172;28;20036;-82
2024/01/28 04:08:58;;;;;;;0.10;0.10;;;5.10;99.90;;;;;;5022107;28;20032;-82
2024/01/28 04:11:27;;;;;;;0.10;0.10;;;5.00;99.90;;;;;;5016322;28;20048;-82
2024/01/28 04:13:56;;;;;;;0.10;0.10;;;5.10;99.90;;;;;;5018172;28;20087;-82
2024/01/28 04:16:22;;;;;;;0.10;0.10;;;5.20;99.90;;;;;;5021422;28;20786;-81
2024/01/28 04:18:49;;;;;;;0.10;0.10;;;5.30;99.90;;;;;;5020206;28;20087;-81
2024/01/28 04:21:15;;;;;;;0.10;0.10;;;5.30;99.90;;;;;;5017456;28;20080;-81
2024/01/28 04:23:40;;;;;;;0.20;0.20;;;5.30;99.90;;;;;;5021712;28;20136;-81
2024/01/28 04:26:07;;;;;;;0.10;0.10;;;5.20;99.90;;;;;;5021766;28;20489;-80
2024/01/28 04:28:33;;;;;;;0.15;0.15;;;5.20;99.80;;;;;;5019089;28;20583;-81
2024/01/28 04:30:58;;;;;;;0.10;0.10;;;5.20;99.80;;;;;;5021238;28;20144;-81
2024/01/28 04:33:24;;;;;;;0.10;0.10;;;5.20;99.70;;;;;;5021604;28;20103;-81
2024/01/28 04:35:50;;;;;;;0.10;0.10;;;5.10;99.90;;;;;;5017304;28;20757;-81
2024/01/28 04:38:16;;;;;;;0.10;0.10;;;5.10;99.90;;;;;;5016872;28;20108;-82
2024/01/28 04:40:42;;;;;;;0.10;0.10;;;5.30;99.20;;;;;;5021777;28;20268;-81
2024/01/28 04:43:08;;;;;;;5.93;3.05;;;5.40;98.40;;;;;;4995215;28;20087;-79
2024/01/28 04:45:33;;;;;;;0.10;0.10;;;5.30;98.40;;;;;;5020154;28;20022;-82
2024/01/28 04:47:59;;;;;;;0.10;0.10;;;5.30;98.20;;;;;;5016434;28;20092;-82
2024/01/28 04:50:25;;;;;;;0.10;0.10;;;5.20;98.20;;;;;;5021610;28;20038;-81
2024/01/28 04:52:51;;;;;;;0.10;0.10;;;5.20;98.10;;;;;;5021698;28;20037;-81
2024/01/28 04:55:16;;;;;;;0.10;0.10;;;5.10;98.50;;;;;;5018782;28;20814;-82
2024/01/28 04:57:42;;;;;;;0.10;0.10;;;5.10;98.50;;;;;;5018337;28;20062;-82
2024/01/28 05:00:10;;;;;;;0.10;0.10;;;5.10;98.20;;;;;;5013203;28;20038;-82
2024/01/28 05:02:39;;;;;;;0.10;0.10;;;5.10;98.20;;;;;;4993618;28;20034;-83
2024/01/28 05:05:05;;;;;;;0.10;0.10;;;5.20;97.70;;;;;;5016577;28;20037;-83
2024/01/28 05:07:31;;;;;;;0.10;0.10;;;5.30;97.20;;;;;;5010527;28;20030;-81
2024/01/28 05:09:57;;;;;;;2.42;2.25;;;5.30;96.70;;;;;;5018263;28;20527;-80
2024/01/28 05:12:23;;;;;;;0.10;0.10;;;5.20;96.60;;;;;;5001538;28;20040;-80
2024/01/28 05:14:49;;;;;;;0.10;0.10;;;5.20;96.70;;;;;;5015329;28;20057;-80
2024/01/28 05:17:15;;;;;;;0.10;0.10;;;5.20;96.40;;;;;;5014055;28;20115;-82
2024/01/28 05:19:41;;;;;;;0.10;0.10;;;5.20;96.20;;;;;;4991663;28;20112;-83
2024/01/28 05:22:07;;;;;;;1.55;0.95;;;5.30;96.00;;;;;;5019532;28;20036;-81
2024/01/28 05:24:33;;;;;;;0.10;0.10;;;5.20;95.90;;;;;;5018840;28;20041;-82
2024/01/28 05:26:59;;;;;;;0.10;0.10;;;5.20;95.70;;;;;;5019465;28;20030;-83
2024/01/28 05:29:25;;;;;;;0.10;0.10;;;5.20;95.50;;;;;;5025327;28;20441;-82
2024/01/28 05:31:52;;;;;;;0.20;0.20;;;5.20;95.40;;;;;;5023426;28;20112;-81
2024/01/28 05:34:17;;;;;;;0.10;0.10;;;5.10;95.50;;;;;;5025538;28;20918;-82
2024/01/28 05:36:50;;;;;;;0.10;0.10;;;5.00;95.60;;;;;;5015246;28;20033;-82
2024/01/28 05:39:17;;;;;;;0.10;0.10;;;5.00;95.70;;;;;;5024666;28;20036;-81
2024/01/28 05:41:43;;;;;;;0.10;0.10;;;5.00;95.60;;;;;;5019385;28;20036;-82
2024/01/28 05:44:09;;;;;;;0.10;0.10;;;5.00;95.60;;;;;;5018028;28;20036;-81
2024/01/28 05:46:35;;;;;;;0.10;0.10;;;5.10;95.10;;;;;;5021555;28;20432;-83
2024/01/28 05:49:01;;;;;;;0.10;0.10;;;5.00;95.30;;;;;;5017011;28;20033;-82
2024/01/28 05:51:27;;;;;;;0.10;0.10;;;5.00;95.40;;;;;;5016848;28;20046;-82
2024/01/28 05:53:54;;;;;;;0.10;0.10;;;4.90;95.60;;;;;;5021297;28;20014;-83
2024/01/28 05:56:20;;;;;;;0.10;0.10;;;5.00;95.10;;;;;;5021830;28;20425;-85
2024/01/28 05:58:46;;;;;;;0.55;0.55;;;5.10;94.80;;;;;;5021448;28;20029;-83
2024/01/28 06:01:12;;;;;;;0.10;0.10;;;5.00;94.80;;;;;;5014318;28;20059;-84
2024/01/28 06:03:38;;;;;;;0.10;0.10;;;4.90;95.10;;;;;;5021602;28;20013;-82
2024/01/28 06:06:04;;;;;;;0.10;0.10;;;5.00;94.60;;;;;;5021637;28;20057;-82
2024/01/28 06:08:30;;;;;;;0.10;0.10;;;5.00;94.50;;;;;;5022249;28;20029;-82
2024/01/28 06:10:56;;;;;;;0.10;0.10;;;4.90;94.50;;;;;;5017479;28;20033;-81
2024/01/28 06:13:21;;;;;;;0.10;0.10;;;5.00;94.20;;;;;;5021206;28;20663;-83
2024/01/28 06:15:47;;;;;;;0.10;0.10;;;5.00;94.10;;;;;;5016336;28;20025;-81
2024/01/28 06:18:13;;;;;;;3.63;0.88;;;5.00;94.00;;;;;;5019459;28;20036;-81
2024/01/28 06:20:38;;;;;;;0.10;0.10;;;5.10;93.80;;;;;;5019725;28;20050;-82
2024/01/28 06:23:04;;;;;;;0.05;0.05;;;5.10;93.50;;;;;;5020177;28;20025;-82
2024/01/28 06:25:30;;;;;;;0.10;0.10;;;5.10;93.40;;;;;;5019858;28;20056;-82
2024/01/28 06:27:55;;;;;;;0.10;0.10;;;5.10;93.10;;;;;;5022743;28;20056;-80
2024/01/28 06:30:21;;;;;;;0.10;0.10;;;5.00;93.30;;;;;;5018966;28;20034;-81
2024/01/28 06:32:47;;;;;;;0.10;0.10;;;5.10;93.20;;;;;;5023000;28;20038;-81
2024/01/28 06:35:12;;;;;;;0.47;0.47;;;5.00;93.40;;;;;;5017044;28;20091;-80
2024/01/28 06:37:39;;;;;;;0.10;0.10;;;4.80;93.70;;;;;;5014791;28;20032;-80
2024/01/28 06:40:06;;;;;;;0.10;0.10;;;4.80;93.70;;;;;;5022332;28;20033;-81
2024/01/28 06:42:32;;;;;;;0.10;0.10;;;5.00;93.20;;;;;;5019562;28;20041;-81
2024/01/28 06:44:59;;;;;;;0.10;0.10;;;5.00;93.20;;;;;;5020581;28;20021;-81
2024/01/28 06:47:25;;;;;;;0.10;0.10;;;4.90;93.30;;;;;;5023666;28;20025;-79
2024/01/28 06:49:51;;;;;;;0.10;0.10;;;4.80;93.50;;;;;;5022055;28;20098;-83
2024/01/28 06:52:17;;;;;;;0.10;0.10;;;4.80;93.70;;;;;;5018713;28;20030;-84
2024/01/28 06:54:42;;;;;;;0.20;0.20;;;4.70;93.90;;;;;;4995892;28;20033;-82
2024/01/28 06:57:08;;;;;;;0.10;0.10;;;4.60;94.10;;;;;;5019962;28;20460;-82
2024/01/28 06:59:34;;;;;;;0.10;0.10;;;4.70;93.90;;;;;;5013557;28;20064;-78
2024/01/28 07:02:00;;;;;;;0.10;0.10;;;4.80;93.50;;;;;;5013791;28;20065;-80
2024/01/28 07:04:26;;;;;;;0.10;0.10;;;4.90;93.20;;;;;;5019102;28;20264;-82
2024/01/28 07:06:51;;;;;;;0.10;0.10;;;4.90;93.20;;;;;;5020254;28;20033;-85
2024/01/28 07:09:17;;;;;;;0.10;0.10;;;4.80;93.30;;;;;;5022096;28;20055;-85
2024/01/28 07:11:44;;;;;;;0.10;0.10;;;4.90;93.00;;;;;;5020381;28;20080;-84
2024/01/28 07:14:10;;;;;;;0.10;0.10;;;5.00;92.80;;;;;;5013365;28;20021;-85
2024/01/28 07:16:36;;;;;;;0.13;0.13;;;4.90;92.90;;;;;;5019178;28;20034;-81
2024/01/28 07:19:02;;;;;;;0.10;0.10;;;5.10;92.40;;;;;;5020110;28;20029;-84
2024/01/28 07:21:27;;;;;;;0.10;0.10;;;5.10;92.10;;;;;;5019798;28;20653;-81
2024/01/28 07:23:53;;;;;;;0.10;0.10;;;5.20;91.80;;;;;;5016991;28;20087;-82
2024/01/28 07:26:19;;;;;;;0.10;0.10;;;5.30;91.60;;;;;;5017068;28;20461;-82
2024/01/28 07:28:45;;;;;;;0.10;0.10;;;5.40;91.00;;;;;;5017635;28;20029;-83
2024/01/28 07:31:11;;;;;;;0.10;0.10;;;5.40;90.90;;;;;;5022861;28;20038;-82
2024/01/28 07:33:37;;;;;;;0.10;0.10;;;5.40;90.70;;;;;;5016397;28;20116;-80
2024/01/28 07:36:03;;;;;;;0.10;0.10;;;5.60;90.30;;;;;;5021758;28;20105;-83
2024/01/28 07:38:29;;;;;;;0.10;0.10;;;5.60;90.00;;;;;;5020366;28;20033;-81
2024/01/28 07:40:55;;;;;;;0.10;0.10;;;5.70;89.80;;;;;;5019471;28;20102;-81
2024/01/28 07:43:23;;;;;;;0.10;0.10;;;5.80;90.00;;;;;;5017170;28;20072;-81
2024/01/28 07:45:50;;;;;;;0.10;0.10;;;5.90;90.00;;;;;;5016782;28;20061;-76
2024/01/28 07:48:16;;;;;;;0.10;0.10;;;6.40;88.70;;;;;;5020086;28;20025;-89
2024/01/28 07:50:42;;;;;;;0.10;0.10;;;6.90;87.20;;;;;;5018926;28;20037;-80
2024/01/28 07:53:08;;;;;;;0.10;0.10;;;6.70;86.60;;;;;;5017758;28;20127;-80
2024/01/28 07:55:34;;;;;;;0.10;0.10;;;6.60;86.50;;;;;;5017626;28;20576;-79
2024/01/28 07:57:59;;;;;;;0.13;0.13;;;6.70;86.30;;;;;;5014226;28;20029;-82
2024/01/28 08:00:26;;;;;;;0.10;0.10;;;6.80;85.20;;;;;;5022959;28;20041;-81
2024/01/28 08:02:52;;;;;;;0.10;0.10;;;6.70;85.10;;;;;;5022968;28;20041;-82
2024/01/28 08:05:18;;;;;;;0.10;0.10;;;6.60;86.10;;;;;;5023218;28;20034;-78
2024/01/28 08:07:44;;;;;;;0.10;0.10;;;6.50;86.30;;;;;;5019706;28;20042;-80
2024/01/28 08:10:09;;;;;;;0.10;0.10;;;6.50;85.70;;;;;;5022664;28;20079;-80
2024/01/28 08:12:35;;;;;;;0.10;0.10;;;6.60;85.40;;;;;;5014560;28;20483;-83
2024/01/28 08:15:01;;;;;;;0.10;0.10;;;6.60;85.40;;;;;;5021549;28;20135;-78
2024/01/28 08:17:26;;;;;;;0.10;0.10;;;6.80;85.20;;;;;;5022796;28;20029;-80
2024/01/28 08:19:52;;;;;;;0.10;0.10;;;7.00;84.80;;;;;;5011932;28;20052;-79
2024/01/28 08:22:17;;;;;;;0.10;0.10;;;7.00;84.80;;;;;;5022266;28;20034;-81
2024/01/28 08:24:43;;;;;;;0.10;0.10;;;7.20;83.90;;;;;;5021491;28;20022;-80
2024/01/28 08:27:09;;;;;;;0.30;0.30;;;7.40;83.40;;;;;;5016983;28;20697;-82
2024/01/28 08:29:37;;;;;;;0.10;0.10;;;7.70;81.80;;;;;;5021638;28;20082;-80
2024/01/28 08:32:03;;;;;;;0.13;0.13;;;7.80;80.60;;;;;;5021926;28;20095;-81
2024/01/28 08:34:29;;;;;;;0.10;0.10;;;7.80;80.50;;;;;;5021932;28;20029;-81
2024/01/28 08:36:54;;;;;;;0.08;0.08;;;7.80;80.60;;;;;;5020743;28;20714;-79
2024/01/28 08:39:20;;;;;;;0.10;0.10;;;7.80;80.20;;;;;;5000244;28;20079;-81
2024/01/28 08:41:45;;;;;;;0.10;0.10;;;7.70;80.00;;;;;;5015665;28;20698;-81
2024/01/28 08:44:11;;;;;;;0.10;0.10;;;7.70;80.90;;;;;;5018900;28;20026;-82
2024/01/28 08:46:40;;;;;;;0.10;0.10;;;7.70;79.40;;;;;;5012511;28;20776;-82
2024/01/28 08:49:06;;;;;;;0.10;0.10;;;7.70;80.70;;;;;;5014880;28;20450;-80
2024/01/28 08:51:32;;;;;;;0.10;0.10;;;7.70;79.40;;;;;;5017494;28;20026;-80
2024/01/28 08:53:57;;;;;;;0.00;0.00;;;7.70;79.20;;;;;;5016271;28;20036;-80
2024/01/28 08:56:23;;;;;;;0.00;0.00;;;7.80;79.30;;;;;;5017077;28;20029;-81
2024/01/28 08:58:48;;;;;;;0.10;0.10;;;8.00;78.90;;;;;;5016133;28;20402;-80
2024/01/28 09:01:14;;;;;;;0.10;0.10;;;8.30;78.30;;;;;;5020491;28;20037;-81
2024/01/28 09:03:40;;;;;;;0.00;0.00;;;8.60;77.90;;;;;;5014687;28;20104;-82
2024/01/28 09:06:06;;;;;;;0.10;0.10;;;8.90;75.80;;;;;;5014217;28;20034;-80
2024/01/28 09:08:32;;;;;;;0.10;0.10;;;9.20;75.70;;;;;;5020145;28;20026;-80
2024/01/28 09:10:59;;;;;;;0.10;0.10;;;9.40;74.60;;;;;;5019143;28;20044;-81
2024/01/28 09:13:24;;;;;;;0.00;0.00;;;9.60;75.40;;;;;;5013088;28;20033;-82
2024/01/28 09:15:50;;;;;;;0.10;0.10;;;9.70;75.60;;;;;;5017859;28;20469;-83
2024/01/28 09:18:16;;;;;;;0.10;0.10;;;10.00;74.40;;;;;;5017264;28;20030;-80
2024/01/28 09:20:42;;;;;;;0.10;0.10;;;10.10;77.90;;;;;;5000265;28;20064;-83
2024/01/28 09:23:07;;;;;;;0.10;0.10;;;10.20;76.50;;;;;;5018448;28;20032;-81
2024/01/28 09:25:34;;;;;;;0.10;0.10;;;10.40;76.40;;;;;;5018220;28;20084;-82
2024/01/28 09:28:00;;;;;;;0.00;0.00;;;10.50;77.00;;;;;;5000214;28;20099;-81
2024/01/28 09:30:25;;;;;;;0.10;0.10;;;10.60;78.00;;;;;;5020873;28;20038;-81
2024/01/28 09:32:51;;;;;;;0.00;0.00;;;10.60;77.70;;;;;;5017542;28;20108;-82
2024/01/28 09:35:17;;;;;;;0.00;0.00;;;10.50;79.10;;;;;;5014749;28;20026;-81
2024/01/28 09:37:42;;;;;;;0.10;0.10;;;10.50;78.30;;;;;;5021601;28;20564;-81
2024/01/28 09:40:11;;;;;;;0.03;0.03;;;10.60;79.50;;;;;;5018933;28;20040;-81
2024/01/28 09:42:48;;;;;;;0.10;0.10;;;10.80;78.50;;;;;;5023458;28;20030;-82
2024/01/28 09:45:15;;;;;;;0.05;0.05;;;10.90;77.80;;;;;;5020437;28;20032;-81
2024/01/28 09:47:42;;;;;;;0.05;0.05;;;11.20;75.50;;;;;;5023130;28;20033;-81
2024/01/28 09:50:08;;;;;;;0.10;0.10;;;11.20;76.10;;;;;;5021135;28;20044;-82
2024/01/28 09:52:34;;;;;;;0.10;0.10;;;11.40;74.60;;;;;;5014691;28;20571;-79
2024/01/28 09:55:00;;;;;;;0.00;0.00;;;11.20;75.30;;;;;;5021691;28;20049;-82
2024/01/28 09:57:27;;;;;;;0.10;0.10;;;11.10;78.00;;;;;;5021028;28;20203;-79
2024/01/28 09:59:54;;;;;;;0.10;0.10;;;10.90;76.60;;;;;;5020817;28;20108;-80
2024/01/28 10:02:22;;;;;;;0.10;0.10;;;11.10;77.80;;;;;;5019877;28;20029;-80
2024/01/28 10:04:48;;;;;;;0.10;0.10;;;11.20;74.60;;;;;;5024333;28;20132;-78
2024/01/28 10:07:15;;;;;;;0.10;0.10;;;11.20;77.60;;;;;;5022230;28;20025;-78
2024/01/28 10:09:41;;;;;;;0.00;0.00;;;11.40;73.50;;;;;;5021941;28;20108;-80
2024/01/28 10:12:09;;;;;;;0.10;0.10;;;11.50;75.90;;;;;;5017425;28;20052;-80
2024/01/28 10:14:35;;;;;;;0.00;0.00;;;11.80;72.90;;;;;;5019596;28;20995;-80
2024/01/28 10:17:00;;;;;;;0.00;0.00;;;12.00;70.70;;;;;;5003864;28;20664;-82
2024/01/28 10:19:26;;;;;;;0.10;0.10;;;12.20;69.40;;;;;;5020993;28;20040;-77
2024/01/28 10:21:52;;;;;;;0.30;0.30;;;12.50;65.70;;;;;;5019898;28;20054;-80
2024/01/28 10:24:18;;;;;;;0.00;0.00;;;12.70;67.60;;;;;;5019235;28;20116;-80
2024/01/28 10:26:44;;;;;;;0.63;0.60;;;12.80;64.50;;;;;;5013183;28;20038;-80
2024/01/28 10:29:12;;;;;;;0.00;0.00;;;12.80;64.60;;;;;;5021047;28;20482;-77
2024/01/28 10:31:38;;;;;;;0.10;0.10;;;12.80;64.90;;;;;;5018667;28;20038;-81
2024/01/28 10:34:04;;;;;;;0.10;0.10;;;13.10;61.50;;;;;;5017381;28;20026;-80
2024/01/28 10:36:34;;;;;;;0.10;0.10;;;13.40;61.20;;;;;;5015650;28;20437;-78
2024/01/28 10:39:04;;;;;;;0.00;0.00;;;13.60;57.90;;;;;;5015762;28;20025;-78
2024/01/28 10:41:32;;;;;;;0.00;0.00;;;13.40;60.50;;;;;;5020190;28;20037;-79
2024/01/28 10:44:02;;;;;;;0.00;0.00;;;13.60;58.10;;;;;;5017951;28;20117;-81
2024/01/28 10:46:41;;;;;;;0.00;0.00;;;13.60;57.40;;;;;;5017523;28;20030;-79
2024/01/28 10:49:09;;;;;;;0.08;0.08;;;14.00;55.00;;;;;;5020282;28;20676;-80
2024/01/28 10:51:37;;;;;;;0.08;0.08;;;14.20;53.60;;;;;;5018572;28;20531;-80
2024/01/28 10:54:09;;;;;;;0.03;0.03;;;14.50;52.10;;;;;;5019426;28;20128;-80
2024/01/28 10:56:38;;;;;;;0.00;0.00;;;14.50;53.30;;;;;;5012738;28;20863;-80
2024/01/28 10:59:04;;;;;;;0.10;0.10;;;14.50;53.40;;;;;;5015014;28;20044;-82
2024/01/28 11:01:32;;;;;;;0.03;0.03;;;14.50;52.60;;;;;;5019047;28;20041;-80
2024/01/28 11:03:59;;;;;;;0.00;0.00;;;14.80;49.70;;;;;;5018400;28;20037;-78
2024/01/28 11:06:31;;;;;;;0.00;0.00;;;14.80;50.00;;;;;;5012491;28;20040;-79
2024/01/28 11:08:58;;;;;;;0.00;0.00;;;14.90;48.60;;;;;;5012552;28;21448;-79
2024/01/28 11:11:24;;;;;;;0.00;0.00;;;14.80;49.70;;;;;;5016864;28;20065;-81
2024/01/28 11:13:50;;;;;;;0.00;0.00;;;14.80;49.40;;;;;;5018074;28;20072;-81
2024/01/28 11:16:19;;;;;;;0.10;0.10;;;14.90;49.50;;;;;;5014422;28;20124;-83
2024/01/28 11:19:00;;;;;;;0.00;0.00;;;14.90;49.00;;;;;;5016516;28;20021;-79
2024/01/28 11:21:28;;;;;;;0.05;0.05;;;14.90;49.20;;;;;;5007614;28;20057;-79
2024/01/28 11:23:57;;;;;;;0.00;0.00;;;15.10;48.30;;;;;;5014192;28;20025;-79
2024/01/28 11:26:25;;;;;;;0.03;0.03;;;14.80;48.60;;;;;;5009263;28;20030;-79
2024/01/28 11:28:53;;;;;;;0.00;0.00;;;14.80;47.80;;;;;;5016054;28;20513;-80
2024/01/28 11:31:40;;;;;;;0.00;0.00;;;15.10;47.80;;;;;;5009899;28;20486;-79
2024/01/28 11:34:12;;;;;;;0.00;0.00;;;15.10;48.10;;;;;;5009717;28;20433;-80
2024/01/28 11:36:38;;;;;;;0.00;0.00;;;15.10;49.60;;;;;;5007901;28;20038;-80
2024/01/28 11:39:07;;;;;;;6.15;3.00;;;15.30;47.60;;;;;;5016544;28;20099;-80
2024/01/28 11:41:40;;;;;;;0.00;0.00;;;15.40;47.00;;;;;;5018469;28;20045;-80
2024/01/28 11:44:15;;;;;;;0.00;0.00;;;15.20;49.20;;;;;;5046901;28;20419;-77
2024/01/28 11:46:40;;;;;;;0.00;0.00;;;15.20;47.70;;;;;;5033406;28;20075;-77
2024/01/28 11:49:08;;;;;;;0.00;0.00;;;15.00;48.30;;;;;;5033317;28;20650;-78
2024/01/28 11:51:34;;;;;;;0.10;0.10;;;15.10;49.50;;;;;;5033247;28;20112;-77
2024/01/28 11:54:02;;;;;;;0.00;0.00;;;15.00;48.40;;;;;;5032173;28;20029;-79
2024/01/28 11:56:28;;;;;;;0.00;0.00;;;15.00;49.80;;;;;;5034486;28;20029;-78
2024/01/28 11:58:56;;;;;;;0.40;0.40;;;14.80;50.70;;;;;;5031185;28;20013;-78
2024/01/28 12:01:22;;;;;;;0.00;0.00;;;15.00;50.20;;;;;;5034835;28;20032;-77
2024/01/28 12:03:47;;;;;;;0.00;0.00;;;15.30;49.50;;;;;;5030721;28;20041;-78
2024/01/28 12:06:14;;;;;;;0.00;0.00;;;15.60;47.80;;;;;;5035601;28;20830;-78
2024/01/28 12:08:43;;;;;;;0.00;0.00;;;15.30;48.80;;;;;;5029680;28;20111;-77
2024/01/28 12:11:13;;;;;;;0.05;0.05;;;15.10;48.10;;;;;;5034364;28;20263;-78
2024/01/28 12:13:39;;;;;;;0.00;0.00;;;15.50;47.20;;;;;;5028980;28;20177;-77
2024/01/28 12:16:06;;;;;;;0.00;0.00;;;15.50;47.10;;;;;;5026807;28;20048;-78
2024/01/28 12:18:37;;;;;;;0.00;0.00;;;15.60;47.30;;;;;;5027546;28;20056;-77
2024/01/28 12:21:04;;;;;;;0.00;0.00;;;15.60;48.30;;;;;;5021075;28;20037;-78
2024/01/28 12:23:32;;;;;;;;;;;15.30;48.50;;;;;;5024722;28;20025;-78
2024/01/28 12:25:58;;;;;;;0.00;0.00;;;15.30;48.70;;;;;;5030018;28;19909;-77
2024/01/28 12:28:25;;;;;;;0.40;0.40;;;15.80;46.00;;;;;;5027178;28;20521;-77
2024/01/28 12:30:53;;;;;;;0.00;0.00;;;15.40;47.00;;;;;;5030015;28;20586;-78
2024/01/28 12:33:18;;;;;;;0.00;0.00;;;15.40;47.10;;;;;;5026913;28;20021;-77
2024/01/28 12:35:44;;;;;;;0.00;0.00;;;15.10;49.80;;;;;;5029124;28;20674;-78
2024/01/28 12:38:10;;;;;;;0.77;0.77;;;15.00;50.80;;;;;;5032450;28;20555;-78
2024/01/28 12:40:36;;;;;;;0.00;0.00;;;15.40;48.80;;;;;;5032246;28;20711;-78
2024/01/28 12:43:01;;;;;;;0.00;0.00;;;15.40;47.80;;;;;;5037377;28;20060;-77
2024/01/28 12:45:27;;;;;;;0.00;0.00;;;15.30;48.20;;;;;;5032961;28;20025;-78
2024/01/28 12:47:53;;;;;;;0.00;0.00;;;15.20;48.10;;;;;;5038000;28;20564;-77
2024/01/28 12:50:19;;;;;;;0.00;0.00;;;15.60;46.70;;;;;;5032244;28;20064;-77